Observation data for Tulia on 11/14/2019      Previous  Date  Next       Current Mesonet Observations  Soil Data  Daily Summary Page  Observations in Plain Language
KTIS 140600Z 35007KT 00/M05 A3012 RMK A01 T00031049  RH  068%=      5-min Rain = 0
KTIS 140605Z 35007KT 01/M05 A3012 RMK A01 T00061048  RH  067%=      5-min Rain = 0
KTIS 140610Z 35008KT 01/M05 A3012 RMK A01 T00101049  RH  065%=      5-min Rain = 0
KTIS 140615Z 35008KT 01/M05 A3012 RMK A01 T00101050  RH  065%=      5-min Rain = 0
KTIS 140620Z 35008KT 01/M05 A3012 RMK A01 T00091051  RH  064%=      5-min Rain = 0
KTIS 140625Z 35008KT 01/M05 A3012 RMK A01 T00071051  RH  065%=      5-min Rain = 0
KTIS 140630Z 35007KT 01/M05 A3013 RMK A01 T00051051  RH  066%=      5-min Rain = 0
KTIS 140635Z 35008KT 01/M05 A3013 RMK A01 T00051051  RH  066%=      5-min Rain = 0
KTIS 140640Z 34007KT 01/M05 A3013 RMK A01 T00071051  RH  065%=      5-min Rain = 0
KTIS 140645Z 34007KT 01/M05 A3013 RMK A01 T00051052  RH  066%=      5-min Rain = 0
KTIS 140650Z 34008KT 01/M05 A3014 RMK A01 T00071052  RH  065%=      5-min Rain = 0
KTIS 140655Z 34008KT 01/M05 A3014 RMK A01 T00081052  RH  065%=      5-min Rain = 0
KTIS 140700Z 35008KT 01/M05 A3014 RMK A01 T00101052  RH  064%=      5-min Rain = 0
KTIS 140705Z 35009KT 01/M05 A3014 RMK A01 T00111052  RH  063%=      5-min Rain = 0
KTIS 140710Z 36008KT 01/M05 A3015 RMK A01 T00111053  RH  062%=      5-min Rain = 0
KTIS 140715Z 35007KT 01/M05 A3015 RMK A01 T00121054  RH  062%=      5-min Rain = 0
KTIS 140720Z 35007KT 01/M05 A3015 RMK A01 T00101054  RH  062%=      5-min Rain = 0
KTIS 140725Z 35007KT 01/M05 A3015 RMK A01 T00101053  RH  063%=      5-min Rain = 0
KTIS 140730Z 35008KT 01/M05 A3015 RMK A01 T00101053  RH  063%=      5-min Rain = 0
KTIS 140735Z 35009KT 01/M05 A3015 RMK A01 T00071054  RH  064%=      5-min Rain = 0
KTIS 140740Z 35010KT 00/M06 A3016 RMK A01 T00041055  RH  065%=      5-min Rain = 0
KTIS 140745Z 35009KT M00/M06 A3016 RMK A01 T10011056  RH  067%=      5-min Rain = 0
KTIS 140750Z 35009KT M01/M06 A3016 RMK A01 T10051057  RH  068%=      5-min Rain = 0
KTIS 140755Z 35009KT M01/M06 A3016 RMK A01 T10081057  RH  069%=      5-min Rain = 0
KTIS 140800Z 34008KT M01/M06 A3016 RMK A01 T10101058  RH  070%=      5-min Rain = 0
KTIS 140805Z 34008KT M01/M06 A3016 RMK A01 T10121059  RH  071%=      5-min Rain = 0
KTIS 140810Z 35008KT M02/M06 A3017 RMK A01 T10161060  RH  072%=      5-min Rain = 0
KTIS 140815Z 36009KT M01/M06 A3017 RMK A01 T10141057  RH  073%=      5-min Rain = 0
KTIS 140820Z 00010KT M01/M05 A3017 RMK A01 T10051053  RH  070%=      5-min Rain = 0
KTIS 140825Z 00009KT 00/M05 A3017 RMK A01 T00021053  RH  067%=      5-min Rain = 0
KTIS 140830Z 00009KT 00/M05 A3017 RMK A01 T00031054  RH  066%=      5-min Rain = 0
KTIS 140835Z 00008KT 00/M05 A3018 RMK A01 T00041054  RH  065%=      5-min Rain = 0
KTIS 140840Z 01009KT 01/M05 A3018 RMK A01 T00061053  RH  065%=      5-min Rain = 0
KTIS 140845Z 00009KT 01/M05 A3018 RMK A01 T00061054  RH  064%=      5-min Rain = 0
KTIS 140850Z 00009KT 00/M06 A3018 RMK A01 T00041055  RH  065%=      5-min Rain = 0
KTIS 140855Z 00009KT 00/M06 A3018 RMK A01 T00021056  RH  065%=      5-min Rain = 0
KTIS 140900Z 36008KT 00/06 A3019 RMK A01 T00-00-57  RH  066%=      5-min Rain = 0
KTIS 140905Z 35008KT M01/M06 A3019 RMK A01 T10071058  RH  068%=      5-min Rain = 0
KTIS 140910Z 35008KT M01/M06 A3019 RMK A01 T10121058  RH  071%=      5-min Rain = 0
KTIS 140915Z 35008KT M02/M06 A3019 RMK A01 T10161059  RH  072%=      5-min Rain = 0
KTIS 140920Z 35008KT M02/M06 A302 RMK A01 T10161058  RH  073%=      5-min Rain = 0
KTIS 140925Z 35008KT M01/M06 A302 RMK A01 T10141058  RH  072%=      5-min Rain = 0
KTIS 140930Z 35008KT M01/M06 A302 RMK A01 T10141059  RH  072%=      5-min Rain = 0
KTIS 140935Z 35008KT M01/M06 A302 RMK A01 T10141058  RH  072%=      5-min Rain = 0
KTIS 140940Z 35007KT M01/M06 A302 RMK A01 T10121057  RH  072%=      5-min Rain = 0
KTIS 140945Z 36008KT M01/M06 A302 RMK A01 T10121057  RH  072%=      5-min Rain = 0
KTIS 140950Z 00008KT M01/M06 A302 RMK A01 T10121057  RH  072%=      5-min Rain = 0
KTIS 140955Z 01008KT M01/M06 A302 RMK A01 T10121056  RH  072%=      5-min Rain = 0
KTIS 141000Z 01008KT M00/M05 A302 RMK A01 T10031050  RH  071%=      5-min Rain = 0
KTIS 141005Z 00008KT 00/M05 A3021 RMK A01 T00021051  RH  068%=      5-min Rain = 0
KTIS 141010Z 00008KT M00/M05 A3021 RMK A01 T10031054  RH  069%=      5-min Rain = 0
KTIS 141015Z 36008KT M01/M05 A3021 RMK A01 T10071053  RH  071%=      5-min Rain = 0
KTIS 141020Z 36007KT M01/M05 A3021 RMK A01 T10101053  RH  073%=      5-min Rain = 0
KTIS 141025Z 00008KT M01/M05 A3021 RMK A01 T10111052  RH  074%=      5-min Rain = 0
KTIS 141030Z 36007KT M01/M05 A3021 RMK A01 T10131053  RH  074%=      5-min Rain = 0
KTIS 141035Z 35006KT M02/M06 A3022 RMK A01 T10181056  RH  076%=      5-min Rain = 0
KTIS 141040Z 35006KT M03/M06 A3022 RMK A01 T10251060  RH  077%=      5-min Rain = 0
KTIS 141045Z 35006KT M03/M06 A3022 RMK A01 T10271059  RH  079%=      5-min Rain = 0
KTIS 141050Z 35006KT M03/M06 A3022 RMK A01 T10261055  RH  081%=      5-min Rain = 0
KTIS 141055Z 36006KT M02/M05 A3023 RMK A01 T10231053  RH  080%=      5-min Rain = 0
KTIS 141100Z 00006KT M02/M05 A3023 RMK A01 T10211053  RH  079%=      5-min Rain = 0
KTIS 141105Z 00006KT M02/M05 A3023 RMK A01 T10181053  RH  077%=      5-min Rain = 0
KTIS 141110Z 00007KT M02/M06 A3023 RMK A01 T10191055  RH  076%=      5-min Rain = 0
KTIS 141115Z 01007KT M02/M05 A3022 RMK A01 T10181054  RH  076%=      5-min Rain = 0
KTIS 141120Z 01006KT M01/M05 A3022 RMK A01 T10141053  RH  075%=      5-min Rain = 0
KTIS 141125Z 00008KT M01/M05 A3023 RMK A01 T10091052  RH  073%=      5-min Rain = 0
KTIS 141130Z 36008KT M01/M05 A3024 RMK A01 T10111054  RH  073%=      5-min Rain = 0
KTIS 141135Z 36008KT M01/M05 A3024 RMK A01 T10141054  RH  074%=      5-min Rain = 0
KTIS 141140Z 35007KT M02/M06 A3024 RMK A01 T10181055  RH  076%=      5-min Rain = 0
KTIS 141145Z 35007KT M02/M06 A3024 RMK A01 T10201055  RH  077%=      5-min Rain = 0
KTIS 141150Z 35007KT M02/M05 A3025 RMK A01 T10201053  RH  078%=      5-min Rain = 0
KTIS 141155Z 35007KT M02/M05 A3025 RMK A01 T10201054  RH  078%=      5-min Rain = 0
KTIS 141200Z 35007KT M02/M05 A3025 RMK A01 T10201054  RH  078%=      5-min Rain = 0
KTIS 141205Z 35007KT M02/M06 A3025 RMK A01 T10231055  RH  079%=      5-min Rain = 0
KTIS 141210Z 35006KT M02/M06 A3025 RMK A01 T10241055  RH  079%=      5-min Rain = 0
KTIS 141215Z 34007KT M03/M06 A3026 RMK A01 T10261056  RH  080%=      5-min Rain = 0
KTIS 141220Z 35008KT M03/M06 A3026 RMK A01 T10261056  RH  081%=      5-min Rain = 0
KTIS 141225Z 35008KT M03/M06 A3026 RMK A01 T10271056  RH  081%=      5-min Rain = 0
KTIS 141230Z 35008KT M03/M05 A3027 RMK A01 T10261054  RH  081%=      5-min Rain = 0
KTIS 141235Z 35008KT M02/M05 A3027 RMK A01 T10241053  RH  081%=      5-min Rain = 0
KTIS 141240Z 35008KT M02/M05 A3028 RMK A01 T10221053  RH  080%=      5-min Rain = 0
KTIS 141245Z 35007KT M02/M05 A3028 RMK A01 T10221053  RH  080%=      5-min Rain = 0
KTIS 141250Z 34007KT M02/M05 A3028 RMK A01 T10241054  RH  080%=      5-min Rain = 0
KTIS 141255Z 34007KT M03/M06 A3029 RMK A01 T10281057  RH  081%=      5-min Rain = 0
KTIS 141300Z 35008KT M03/M06 A3029 RMK A01 T10281055  RH  082%=      5-min Rain = 0
KTIS 141305Z 35007KT M03/M05 A303 RMK A01 T10261052  RH  082%=      5-min Rain = 0
KTIS 141310Z 35007KT M03/M06 A303 RMK A01 T10281056  RH  081%=      5-min Rain = 0
KTIS 141315Z 35006KT M03/M06 A303 RMK A01 T10321058  RH  082%=      5-min Rain = 0
KTIS 141320Z 34006KT M04/M06 A303 RMK A01 T10351060  RH  083%=      5-min Rain = 0
KTIS 141325Z 35007KT M04/M06 A303 RMK A01 T10371060  RH  084%=      5-min Rain = 0
KTIS 141330Z 35007KT M04/M06 A3031 RMK A01 T10361059  RH  084%=      5-min Rain = 0
KTIS 141335Z 35008KT M03/M05 A3031 RMK A01 T10301052  RH  085%=      5-min Rain = 0
KTIS 141340Z 35008KT M02/M05 A3031 RMK A01 T10241048  RH  084%=      5-min Rain = 0
KTIS 141345Z 35007KT M02/M05 A3032 RMK A01 T10211048  RH  082%=      5-min Rain = 0
KTIS 141350Z 35008KT M02/M05 A3032 RMK A01 T10191048  RH  081%=      5-min Rain = 0
KTIS 141355Z 35008KT M02/M05 A3032 RMK A01 T10171047  RH  080%=      5-min Rain = 0
KTIS 141400Z 36006KT M01/M05 A3032 RMK A01 T10141046  RH  079%=      5-min Rain = 0
KTIS 141405Z 36006KT M01/M04 A3033 RMK A01 T10111044  RH  079%=      5-min Rain = 0
KTIS 141410Z 36005KT M01/M04 A3033 RMK A01 T10071042  RH  078%=      5-min Rain = 0
KTIS 141415Z 00005KT M00/M04 A3033 RMK A01 T10021039  RH  077%=      5-min Rain = 0
KTIS 141420Z 01006KT 00/M04 A3034 RMK A01 T00041037  RH  075%=      5-min Rain = 0
KTIS 141425Z 01006KT 01/M04 A3034 RMK A01 T00061037  RH  073%=      5-min Rain = 0
KTIS 141430Z 00006KT 01/M04 A3035 RMK A01 T00101035  RH  073%=      5-min Rain = 0
KTIS 141435Z 00006KT 02/M03 A3035 RMK A01 T00151032  RH  072%=      5-min Rain = 0
KTIS 141440Z 00006KT 02/M03 A3035 RMK A01 T00211029  RH  070%=      5-min Rain = 0
KTIS 141445Z 01006KT 03/M03 A3036 RMK A01 T00261027  RH  069%=      5-min Rain = 0
KTIS 141450Z 02007KT 03/M02 A3036 RMK A01 T00321023  RH  068%=      5-min Rain = 0
KTIS 141455Z 02007KT 04/M02 A3036 RMK A01 T00351023  RH  067%=      5-min Rain = 0
KTIS 141500Z 02008KT 04/M02 A3036 RMK A01 T00381021  RH  066%=      5-min Rain = 0
KTIS 141505Z 03007KT 04/M02 A3036 RMK A01 T00411018  RH  066%=      5-min Rain = 0
KTIS 141510Z 03008KT 04/M02 A3037 RMK A01 T00441016  RH  066%=      5-min Rain = 0
KTIS 141515Z 04008KT 05/M01 A3037 RMK A01 T00491013  RH  065%=      5-min Rain = 0
KTIS 141520Z 05008KT 05/M01 A3037 RMK A01 T00511011  RH  065%=      5-min Rain = 0
KTIS 141525Z 05009G14KT 05/M01 A3037 RMK A01 T00531010  RH  065%=      5-min Rain = 0
KTIS 141530Z 05011KT 05/M01 A3037 RMK A01 T00531010  RH  064%=      5-min Rain = 0
KTIS 141535Z 05011KT 06/M01 A3038 RMK A01 T00551009  RH  064%=      5-min Rain = 0
KTIS 141540Z 04011KT 06/M01 A3038 RMK A01 T00581008  RH  063%=      5-min Rain = 0
KTIS 141545Z 04013KT 06/M01 A3038 RMK A01 T00591008  RH  062%=      5-min Rain = 0
KTIS 141550Z 05012KT 06/M01 A3038 RMK A01 T00601008  RH  062%=      5-min Rain = 0
KTIS 141555Z 05012KT 06/M01 A3038 RMK A01 T00631008  RH  061%=      5-min Rain = 0
KTIS 141600Z 05011KT 07/M01 A3038 RMK A01 T00651007  RH  061%=      5-min Rain = 0
KTIS 141605Z 06011G16KT 07/M01 A3038 RMK A01 T00671008  RH  060%=      5-min Rain = 0
KTIS 141610Z 05011KT 07/M01 A3039 RMK A01 T00701007  RH  058%=      5-min Rain = 0
KTIS 141615Z 05011KT 07/M01 A3039 RMK A01 T00701008  RH  058%=      5-min Rain = 0
KTIS 141620Z 05010G16KT 07/M01 A3039 RMK A01 T00721007  RH  058%=      5-min Rain = 0
KTIS 141625Z 05009KT 07/M01 A3039 RMK A01 T00731007  RH  057%=      5-min Rain = 0
KTIS 141630Z 05009KT 08/M01 A3039 RMK A01 T00761006  RH  057%=      5-min Rain = 0
KTIS 141635Z 04008KT 08/M01 A304 RMK A01 T00781007  RH  055%=      5-min Rain = 0
KTIS 141640Z 04009KT 08/M01 A304 RMK A01 T00781007  RH  055%=      5-min Rain = 0
KTIS 141645Z 04009KT 08/M01 A304 RMK A01 T00801008  RH  055%=      5-min Rain = 0
KTIS 141650Z 06009KT 08/M01 A304 RMK A01 T00821006  RH  055%=      5-min Rain = 0
KTIS 141655Z 05009KT 08/M01 A304 RMK A01 T00811008  RH  054%=      5-min Rain = 0
KTIS 141700Z 05007KT 08/M01 A304 RMK A01 T00801008  RH  054%=      5-min Rain = 0
KTIS 141705Z 06008KT 08/M01 A304 RMK A01 T00841008  RH  053%=      5-min Rain = 0
KTIS 141710Z 04008G13KT 09/M01 A304 RMK A01 T00901007  RH  051%=      5-min Rain = 0
KTIS 141715Z 06012KT 09/M01 A304 RMK A01 T00911012  RH  049%=      5-min Rain = 0
KTIS 141720Z 05010G16KT 09/M01 A304 RMK A01 T00891012  RH  049%=      5-min Rain = 0
KTIS 141725Z 06011KT 09/M01 A304 RMK A01 T00911013  RH  049%=      5-min Rain = 0
KTIS 141730Z 06010KT 10/M01 A304 RMK A01 T00951011  RH  048%=      5-min Rain = 0
KTIS 141735Z 04009G14KT 10/M01 A304 RMK A01 T00951012  RH  048%=      5-min Rain = 0
KTIS 141740Z 05010G15KT 10/M01 A304 RMK A01 T00961013  RH  047%=      5-min Rain = 0
KTIS 141745Z 04010KT 09/M01 A3039 RMK A01 T00941012  RH  048%=      5-min Rain = 0
KTIS 141750Z 04008G13KT 09/M01 A3039 RMK A01 T00941011  RH  048%=      5-min Rain = 0
KTIS 141755Z 05009KT 10/M01 A3039 RMK A01 T00981009  RH  048%=      5-min Rain = 0
KTIS 141800Z 04010G15KT 10/M01 A3039 RMK A01 T00991009  RH  047%=      5-min Rain = 0
KTIS 141805Z 04010G15KT 10/M01 A3039 RMK A01 T00991012  RH  046%=      5-min Rain = 0
KTIS 141810Z 05012KT 10/M01 A3039 RMK A01 T00991013  RH  046%=      5-min Rain = 0
KTIS 141815Z 04012KT 10/M01 A3038 RMK A01 T00991014  RH  046%=      5-min Rain = 0
KTIS 141820Z 04012KT 10/M02 A3038 RMK A01 T00981015  RH  046%=      5-min Rain = 0
KTIS 141825Z 05010KT 10/M01 A3038 RMK A01 T01011012  RH  046%=      5-min Rain = 0
KTIS 141830Z 05010KT 10/M01 A3038 RMK A01 T01011013  RH  045%=      5-min Rain = 0
KTIS 141835Z 06012KT 10/M01 A3038 RMK A01 T01011013  RH  045%=      5-min Rain = 0
KTIS 141840Z 06008KT 10/M01 A3038 RMK A01 T01011012  RH  046%=      5-min Rain = 0
KTIS 141845Z 06011KT 10/M01 A3038 RMK A01 T01021012  RH  045%=      5-min Rain = 0
KTIS 141850Z 06010KT 10/M01 A3038 RMK A01 T01011013  RH  045%=      5-min Rain = 0
KTIS 141855Z 04009G14KT 10/M01 A3037 RMK A01 T01041013  RH  045%=      5-min Rain = 0
KTIS 141900Z 05008KT 11/M01 A3037 RMK A01 T01071011  RH  044%=      5-min Rain = 0
KTIS 141905Z 05006G12KT 11/M01 A3037 RMK A01 T01081011  RH  044%=      5-min Rain = 0
KTIS 141910Z 06007KT 11/M01 A3037 RMK A01 T01101010  RH  044%=      5-min Rain = 0
KTIS 141915Z 06009G14KT 11/M01 A3037 RMK A01 T01071008  RH  046%=      5-min Rain = 0
KTIS 141920Z 02007KT 11/M01 A3037 RMK A01 T01071013  RH  044%=      5-min Rain = 0
KTIS 141925Z 05009G15KT 11/M01 A3036 RMK A01 T01091013  RH  043%=      5-min Rain = 0
KTIS 141930Z 05007G15KT 11/M01 A3036 RMK A01 T01111014  RH  042%=      5-min Rain = 0
KTIS 141935Z 05008G14KT 11/M01 A3036 RMK A01 T01141013  RH  042%=      5-min Rain = 0
KTIS 141940Z 05008G14KT 12/M01 A3036 RMK A01 T01151012  RH  042%=      5-min Rain = 0
KTIS 141945Z 04009KT 12/M01 A3036 RMK A01 T01161013  RH  041%=      5-min Rain = 0
KTIS 141950Z 05011KT 12/M01 A3036 RMK A01 T01171014  RH  041%=      5-min Rain = 0
KTIS 141955Z 04009G14KT 12/M01 A3036 RMK A01 T01151013  RH  041%=      5-min Rain = 0
KTIS 142000Z 03009KT 12/M02 A3036 RMK A01 T01181015  RH  040%=      5-min Rain = 0
KTIS 142005Z 05009KT 12/M01 A3035 RMK A01 T01181014  RH  040%=      5-min Rain = 0
KTIS 142010Z 03003G9KT 11/M02 A3035 RMK A01 T01141015  RH  041%=      5-min Rain = 0
KTIS 142015Z 03004G10KT 11/M01 A3035 RMK A01 T01131014  RH  042%=      5-min Rain = 0
KTIS 142020Z 05007KT 12/M01 A3035 RMK A01 T01181014  RH  040%=      5-min Rain = 0
KTIS 142025Z 02007KT 12/M01 A3035 RMK A01 T01181014  RH  040%=      5-min Rain = 0
KTIS 142030Z 04005KT 12/M01 A3035 RMK A01 T01191012  RH  041%=      5-min Rain = 0
KTIS 142035Z 02007KT 12/M02 A3035 RMK A01 T01201015  RH  040%=      5-min Rain = 0
KTIS 142040Z 03004KT 12/M01 A3035 RMK A01 T01191014  RH  040%=      5-min Rain = 0
KTIS 142045Z 05006KT 12/M01 A3035 RMK A01 T01211011  RH  040%=      5-min Rain = 0
KTIS 142050Z 05006KT 12/M01 A3035 RMK A01 T01201013  RH  040%=      5-min Rain = 0
KTIS 142055Z 04003KT 12/M02 A3034 RMK A01 T01191015  RH  040%=      5-min Rain = 0
KTIS 142100Z 06007KT 12/M01 A3035 RMK A01 T01211009  RH  041%=      5-min Rain = 0
KTIS 142105Z 04006KT 12/M01 A3035 RMK A01 T01221013  RH  040%=      5-min Rain = 0
KTIS 142110Z 09004KT 12/M01 A3034 RMK A01 T01201010  RH  041%=      5-min Rain = 0
KTIS 142115Z 08004KT 12/M01 A3035 RMK A01 T01201009  RH  041%=      5-min Rain = 0
KTIS 142120Z 08006KT 12/M01 A3035 RMK A01 T01211010  RH  041%=      5-min Rain = 0
KTIS 142125Z 07008G15KT 12/M01 A3035 RMK A01 T01221007  RH  041%=      5-min Rain = 0
KTIS 142130Z 06007KT 12/M01 A3035 RMK A01 T01201013  RH  040%=      5-min Rain = 0
KTIS 142135Z 09004KT 12/M01 A3035 RMK A01 T01181010  RH  041%=      5-min Rain = 0
KTIS 142140Z 06005KT 12/M01 A3035 RMK A01 T01201013  RH  040%=      5-min Rain = 0
KTIS 142145Z 08005KT 12/M01 A3035 RMK A01 T01191011  RH  041%=      5-min Rain = 0
KTIS 142150Z 06005KT 12/M01 A3035 RMK A01 T01201014  RH  040%=      5-min Rain = 0
KTIS 142155Z 09005KT 12/M01 A3035 RMK A01 T01201011  RH  041%=      5-min Rain = 0
KTIS 142200Z 07005KT 12/M01 A3035 RMK A01 T01191013  RH  040%=      5-min Rain = 0
KTIS 142205Z 06005KT 12/M02 A3034 RMK A01 T01181015  RH  040%=      5-min Rain = 0
KTIS 142210Z 07006KT 12/M02 A3035 RMK A01 T01181015  RH  040%=      5-min Rain = 0
KTIS 142215Z 05004KT 12/M01 A3035 RMK A01 T01191014  RH  040%=      5-min Rain = 0
KTIS 142220Z 10003KT 12/M01 A3035 RMK A01 T01181014  RH  040%=      5-min Rain = 0
KTIS 142225Z 07005KT 12/M01 A3034 RMK A01 T01171011  RH  041%=      5-min Rain = 0
KTIS 142230Z 08004KT 12/M01 A3035 RMK A01 T01181013  RH  041%=      5-min Rain = 0
KTIS 142235Z 08005KT 12/M01 A3035 RMK A01 T01151010  RH  042%=      5-min Rain = 0
KTIS 142240Z 08003KT 11/M01 A3035 RMK A01 T01141013  RH  042%=      5-min Rain = 0
KTIS 142245Z 09005KT 11/M01 A3035 RMK A01 T01141010  RH  043%=      5-min Rain = 0
KTIS 142250Z 08005KT 11/M01 A3035 RMK A01 T01121005  RH  045%=      5-min Rain = 0
KTIS 142255Z 08005KT 11/M01 A3035 RMK A01 T01111008  RH  044%=      5-min Rain = 0
KTIS 142300Z 08004KT 11/M01 A3035 RMK A01 T01091008  RH  045%=      5-min Rain = 0
KTIS 142305Z 09003KT 11/M00 A3035 RMK A01 T01071002  RH  047%=      5-min Rain = 0
KTIS 142310Z 09005KT 11/M00 A3035 RMK A01 T01051002  RH  048%=      5-min Rain = 0
KTIS 142315Z 09005KT 10/00 A3035 RMK A01 T01000000  RH  051%=      5-min Rain = 0
KTIS 142320Z 09004KT 10/M00 A3035 RMK A01 T00981001  RH  051%=      5-min Rain = 0
KTIS 142325Z 09004KT 09/M00 A3035 RMK A01 T00931001  RH  052%=      5-min Rain = 0
KTIS 142330Z 09004KT 09/00 A3035 RMK A01 T00890003  RH  056%=      5-min Rain = 0
KTIS 142335Z 10004KT 08/00 A3036 RMK A01 T00840001  RH  056%=      5-min Rain = 0
KTIS 142340Z 10004KT 08/M00 A3036 RMK A01 T00841004  RH  054%=      5-min Rain = 0
KTIS 142345Z 11004KT 08/M00 A3036 RMK A01 T00821003  RH  056%=      5-min Rain = 0
KTIS 142350Z 11005KT 08/M01 A3036 RMK A01 T00771006  RH  056%=      5-min Rain = 0
KTIS 142355Z 12005KT 07/M01 A3036 RMK A01 T00721006  RH  058%=      5-min Rain = 0
KTIS 150000Z 13005KT 07/M01 A3036 RMK A01 T00711010  RH  057%=      5-min Rain = 0
KTIS 150005Z 13004KT 06/M01 A3037 RMK A01 T00641009  RH  060%=      5-min Rain = 0
KTIS 150010Z 14004KT 06/M01 A3037 RMK A01 T00641013  RH  058%=      5-min Rain = 0
KTIS 150015Z 14005KT 07/M01 A3037 RMK A01 T00651013  RH  058%=      5-min Rain = 0
KTIS 150020Z 13005KT 06/M01 A3037 RMK A01 T00631014  RH  058%=      5-min Rain = 0
KTIS 150025Z 13004KT 07/M02 A3038 RMK A01 T00661017  RH  056%=      5-min Rain = 0
KTIS 150030Z 14004KT 06/M02 A3038 RMK A01 T00641016  RH  057%=      5-min Rain = 0
KTIS 150035Z 14004KT 06/M01 A3038 RMK A01 T00591013  RH  060%=      5-min Rain = 0
KTIS 150040Z 13005KT 06/M02 A3038 RMK A01 T00581015  RH  060%=      5-min Rain = 0
KTIS 150045Z 13005KT 06/M02 A3038 RMK A01 T00601016  RH  059%=      5-min Rain = 0
KTIS 150050Z 13005KT 06/M02 A3038 RMK A01 T00581016  RH  060%=      5-min Rain = 0
KTIS 150055Z 13006KT 05/M02 A3038 RMK A01 T00521017  RH  061%=      5-min Rain = 0
KTIS 150100Z 13006KT 05/M02 A3038 RMK A01 T00491016  RH  063%=      5-min Rain = 0
KTIS 150105Z 14006KT 05/M02 A3038 RMK A01 T00491015  RH  063%=      5-min Rain = 0
KTIS 150110Z 14006KT 05/M02 A3039 RMK A01 T00501016  RH  063%=      5-min Rain = 0
KTIS 150115Z 15005KT 05/M02 A3039 RMK A01 T00461017  RH  064%=      5-min Rain = 0
KTIS 150120Z 15006KT 04/M02 A3039 RMK A01 T00411016  RH  067%=      5-min Rain = 0
KTIS 150125Z 15006KT 04/M02 A3039 RMK A01 T00431016  RH  066%=      5-min Rain = 0
KTIS 150130Z 15006KT 04/M02 A3039 RMK A01 T00431017  RH  066%=      5-min Rain = 0
KTIS 150135Z 16006KT 04/M02 A3039 RMK A01 T00371020  RH  067%=      5-min Rain = 0
KTIS 150140Z 16006KT 03/M02 A3039 RMK A01 T00341024  RH  066%=      5-min Rain = 0
KTIS 150145Z 16005KT 03/M03 A3039 RMK A01 T00311026  RH  066%=      5-min Rain = 0
KTIS 150150Z 16005KT 03/M03 A304 RMK A01 T00281028  RH  067%=      5-min Rain = 0
KTIS 150155Z 15006KT 03/M03 A304 RMK A01 T00261026  RH  069%=      5-min Rain = 0
KTIS 150200Z 16006KT 03/M02 A304 RMK A01 T00291020  RH  071%=      5-min Rain = 0
KTIS 150205Z 17006KT 03/M02 A304 RMK A01 T00291022  RH  070%=      5-min Rain = 0
KTIS 150210Z 17006KT 03/M03 A304 RMK A01 T00261028  RH  068%=      5-min Rain = 0
KTIS 150215Z 17006KT 03/M03 A304 RMK A01 T00261025  RH  069%=      5-min Rain = 0
KTIS 150220Z 17006KT 03/M03 A304 RMK A01 T00261027  RH  068%=      5-min Rain = 0
KTIS 150225Z 17007KT 03/M03 A304 RMK A01 T00251026  RH  069%=      5-min Rain = 0
KTIS 150230Z 17007KT 03/M03 A304 RMK A01 T00281025  RH  068%=      5-min Rain = 0
KTIS 150235Z 18007KT 03/M03 A304 RMK A01 T00281027  RH  067%=      5-min Rain = 0
KTIS 150240Z 18007KT 03/M03 A304 RMK A01 T00271029  RH  067%=      5-min Rain = 0
KTIS 150245Z 18007KT 03/M03 A304 RMK A01 T00251030  RH  067%=      5-min Rain = 0
KTIS 150250Z 18007KT 03/M03 A304 RMK A01 T00251030  RH  067%=      5-min Rain = 0
KTIS 150255Z 18007KT 02/M03 A304 RMK A01 T00241029  RH  068%=      5-min Rain = 0
KTIS 150300Z 17008KT 03/M03 A304 RMK A01 T00281028  RH  067%=      5-min Rain = 0
KTIS 150305Z 18008KT 03/M03 A304 RMK A01 T00281028  RH  067%=      5-min Rain = 0
KTIS 150310Z 18007KT 03/M03 A304 RMK A01 T00251030  RH  068%=      5-min Rain = 0
KTIS 150315Z 18007KT 02/M03 A304 RMK A01 T00211031  RH  069%=      5-min Rain = 0
KTIS 150320Z 18006KT 02/M03 A304 RMK A01 T00161033  RH  070%=      5-min Rain = 0
KTIS 150325Z 19007KT 01/M03 A304 RMK A01 T00121034  RH  072%=      5-min Rain = 0
KTIS 150330Z 19007KT 01/M03 A304 RMK A01 T00121034  RH  072%=      5-min Rain = 0
KTIS 150335Z 19007KT 02/M03 A3041 RMK A01 T00151031  RH  072%=      5-min Rain = 0
KTIS 150340Z 18007KT 02/M03 A3041 RMK A01 T00151032  RH  071%=      5-min Rain = 0
KTIS 150345Z 19006KT 01/M03 A3041 RMK A01 T00141031  RH  072%=      5-min Rain = 0
KTIS 150350Z 19007KT 02/M03 A304 RMK A01 T00181029  RH  072%=      5-min Rain = 0
KTIS 150355Z 19007KT 02/M03 A304 RMK A01 T00191029  RH  071%=      5-min Rain = 0
KTIS 150400Z 19007KT 02/M03 A304 RMK A01 T00201028  RH  071%=      5-min Rain = 0
KTIS 150405Z 19008KT 02/M03 A3041 RMK A01 T00211028  RH  071%=      5-min Rain = 0
KTIS 150410Z 20007KT 02/M03 A3041 RMK A01 T00191030  RH  070%=      5-min Rain = 0
KTIS 150415Z 20007KT 02/M03 A3041 RMK A01 T00181030  RH  071%=      5-min Rain = 0
KTIS 150420Z 20007KT 02/M03 A3041 RMK A01 T00171030  RH  071%=      5-min Rain = 0
KTIS 150425Z 20007KT 02/M03 A3041 RMK A01 T00171030  RH  071%=      5-min Rain = 0
KTIS 150430Z 20008KT 02/M03 A3041 RMK A01 T00191030  RH  071%=      5-min Rain = 0
KTIS 150435Z 20008KT 02/M03 A3041 RMK A01 T00241027  RH  070%=      5-min Rain = 0
KTIS 150440Z 21008KT 03/M03 A3041 RMK A01 T00291025  RH  068%=      5-min Rain = 0
KTIS 150445Z 21008KT 03/M03 A3041 RMK A01 T00291025  RH  068%=      5-min Rain = 0
KTIS 150450Z 21008KT 03/M03 A3041 RMK A01 T00301026  RH  067%=      5-min Rain = 0
KTIS 150455Z 20008KT 03/M03 A3041 RMK A01 T00291025  RH  068%=      5-min Rain = 0
KTIS 150500Z 21007KT 03/M03 A3041 RMK A01 T00261027  RH  069%=      5-min Rain = 0
KTIS 150505Z 21007KT 02/M03 A3042 RMK A01 T00211029  RH  070%=      5-min Rain = 0
KTIS 150510Z 21006KT 02/M03 A3042 RMK A01 T00171030  RH  071%=      5-min Rain = 0
KTIS 150515Z 21007KT 02/M03 A3042 RMK A01 T00161030  RH  072%=      5-min Rain = 0
KTIS 150520Z 21007KT 02/M03 A3042 RMK A01 T00171029  RH  072%=      5-min Rain = 0
KTIS 150525Z 21007KT 02/M03 A3042 RMK A01 T00171030  RH  071%=      5-min Rain = 0
KTIS 150530Z 22007KT 01/M03 A3042 RMK A01 T00121033  RH  072%=      5-min Rain = 0
KTIS 150535Z 22008KT 01/M03 A3042 RMK A01 T00121032  RH  073%=      5-min Rain = 0
KTIS 150540Z 21007KT 01/M03 A3042 RMK A01 T00131032  RH  072%=      5-min Rain = 0
KTIS 150545Z 21008KT 01/M03 A3042 RMK A01 T00141032  RH  072%=      5-min Rain = 0
KTIS 150550Z 21008KT 02/M03 A3041 RMK A01 T00151032  RH  072%=      5-min Rain = 0
KTIS 150555Z 21008KT 01/M03 A3041 RMK A01 T00141032  RH  072%=      5-min Rain = 0

Page generated in 0.0094 seconds.